Weather at Sungai Tekai Airport

Public forecast

Using degrees Celsius for public forecast. Weather courtesy of forecast.io.

Closest aviation weather report (METAR) to Sungai Tekai Airport

Report is more than 6 hours old.

Closest report is Malacca International Airport, 44.5 nm (82.5 km) WSW.

2024/06/24 06:00 (retrieved 1 day ago)

WMKM 240600Z 16007KT 100V260 9999 FEW021 32/24 Q1009

Closest aviation forecast (TAF) to Sungai Tekai Airport

Forecast is more than 12 hours old.

Closest forecast is Kluang Airport, 43.7 nm (81.0 km) SE.

2024/06/24 18:00 (retrieved 14 hours ago)

TAF WMAP 241700Z 2418/2518 VRB03KT 9999 FEW025 PROB30 TEMPO 2508/2512 5000 TSRA FEW017CB SCT018